KMLC

Details ICAO KMLC (MLC)
Name MC ALESTER RGNL
Region United States
Timezone America/Chicago (UTC-5.0)
Plans Departing 5
Arriving 3
Stats Elevation 770 ft / 235 m (AMSL)
Location 34.882400° -95.783473°
Runways 1
Magnetic Variation 2.578° E
Sunrise 2018-05-21 11:17:09 UTC / 2018-05-21 06:17:09 Local
Sunset 2018-05-22 01:25:11 UTC / 2018-05-21 20:25:11 Local
Advertisement - Login to hide

Runways

ID Width Length Bearing (true) Bearing (mag) Surface Threshold Offset Overrun Length
01 100 ft / 30 m 5,613 ft / 1,711 m 20.29° 17.71° Concrete 0 ft / 0 m 0 ft / 0 m
19 100 ft / 30 m 5,613 ft / 1,711 m 200.29° 197.71° Concrete 0 ft / 0 m 0 ft / 0 m

Approach Navaids

Runway Type Ident Frequency Range Bearing (true) Bearing (mag) Slope Elevation
01 Localiser IMLC 108.30 MHz 18 nm / 33 km 20.29° 17.71° - 770 ft / 235 m (AMSL)

Map

Weather


0- 5 10 15 20 25 30 35+ Temperature / ° C

Clouds and Precipitation
Forecast for 2018-05-22 00:00 UTC. Updated 3 hours ago

Ground ~20,000 ft ~40,000 ft Winds

METAR

KMLC 220053Z AUTO 00000KT 10SM CLR 27/21 A2997 RMK AO2 SLP139 T02670206

TAF

TAF KMLC 212320Z 2200/2224 34004KT P6SM SCT050 FM220900 00000KT 3SM BR SKC FM221500 VRB03KT P6SM BKN015 FM221700 17005KT P6SM SCT025

Frequencies

Recorded 135.12 MHz ASOS
Unicom 122.95 MHz CTAF/UNICOM
Warning: Do not use this data for real-world aviation or navigation. No guarantee of current accuracy is given.